Time;durP1;ratioP1;P1;durP2;ratioP2;P2;SDS_P1;SDS_P2;PMS_P1;PMS_P2;Temp;Humidity;BMP_temperature;BMP_pressure;BME280_temperature;BME280_humidity;BME280_pressure;Samples;Min_cycle;Max_cycle;Signal;HPM_P1;HPM_P2
2022/09/18 00:01:08;;;;;;;;;;;;;;;24.13;61.46;99167.34;7404525;19;1701;-67
2022/09/18 00:03:40;;;;;;;;;;;;;;;24.15;61.48;99152.63;7407811;19;1504;-67
2022/09/18 00:06:10;;;;;;;;;;;;;;;24.07;61.79;99150.09;7408618;19;1523;-68
2022/09/18 00:08:39;;;;;;;;;;;;;;;24.13;61.72;99154.69;7409421;19;1524;-68
2022/09/18 00:11:08;;;;;;;;;;;;;;;24.09;61.54;99145.31;7407275;19;941;-68
2022/09/18 00:13:38;;;;;;;;;;;;;;;24.08;61.80;99153.66;7406387;19;1846;-66
2022/09/18 00:16:06;;;;;;;;;;;;;;;24.10;61.69;99155.09;7409113;19;1528;-67
2022/09/18 00:18:35;;;;;;;;;;;;;;;24.07;61.53;99154.69;7408795;19;1615;-67
2022/09/18 00:21:10;;;;;;;;;;;;;;;24.11;61.49;99156.75;7408743;19;1524;-67
2022/09/18 00:23:38;;;;;;;;;;;;;;;24.09;61.71;99158.81;7406961;19;1556;-67
2022/09/18 00:26:07;;;;;;;;;;;;;;;24.09;61.72;99180.44;7409087;19;1625;-67
2022/09/18 00:28:35;;;;;;;;;;;;;;;24.08;61.62;99186.88;7408685;19;1548;-67
2022/09/18 00:31:07;;;;;;;;;;;;;;;24.08;61.72;99200.38;7409151;19;1552;-67
2022/09/18 00:33:38;;;;;;;;;;;;;;;24.10;61.55;99225.31;7407266;19;1863;-67
2022/09/18 00:36:10;;;;;;;;;;;;;;;24.10;61.54;99230.72;7406454;19;1630;-67
2022/09/18 00:38:39;;;;;;;;;;;;;;;24.10;61.69;99255.03;7405678;19;1579;-67
2022/09/18 00:41:09;;;;;;;;;;;;;;;24.11;61.81;99259.38;7408785;19;1663;-67
2022/09/18 00:43:38;;;;;;;;;;;;;;;24.10;61.55;99263.13;7408466;19;1013;-67
2022/09/18 00:46:08;;;;;;;;;;;;;;;24.10;61.42;99262.31;7404931;19;1705;-67
2022/09/18 00:48:41;;;;;;;;;;;;;;;24.12;61.56;99282.66;7406397;19;997;-67
2022/09/18 00:51:12;;;;;;;;;;;;;;;24.14;61.65;99307.59;7405167;19;1674;-67
2022/09/18 00:53:43;;;;;;;;;;;;;;;24.10;61.64;99310.91;7405841;19;1844;-67
2022/09/18 00:56:13;;;;;;;;;;;;;;;24.12;61.69;99314.25;7407403;19;964;-67
2022/09/18 00:58:42;;;;;;;;;;;;;;;24.11;61.74;99324.19;7405938;19;1714;-67
2022/09/18 01:01:11;;;;;;;;;;;;;;;24.11;61.61;99324.19;7405201;19;1464;-67
2022/09/18 01:03:39;;;;;;;;;;;;;;;24.12;61.64;99333.16;7405740;19;1547;-57
2022/09/18 01:06:12;;;;;;;;;;;;;;;24.13;61.64;99332.94;7406796;19;1492;-57
2022/09/18 01:08:50;;;;;;;;;;;;;;;24.08;61.71;99338.13;7407107;19;1536;-57
2022/09/18 01:11:39;;;;;;;;;;;;;;;24.11;61.64;99344.97;7406855;19;1562;-57
2022/09/18 01:14:15;;;;;;;;;;;;;;;24.07;61.61;99360.75;7403616;19;1859;-57
2022/09/18 01:16:47;;;;;;;;;;;;;;;24.09;61.82;99363.25;7406799;19;1634;-57
2022/09/18 01:19:21;;;;;;;;;;;;;;;24.08;61.75;99372.41;7407058;19;981;-57
2022/09/18 01:21:55;;;;;;;;;;;;;;;24.09;61.86;99380.28;7406324;19;1756;-57
2022/09/18 01:24:44;;;;;;;;;;;;;;;24.09;61.92;99404.59;7404897;19;1662;-57
2022/09/18 01:27:22;;;;;;;;;;;;;;;24.07;61.66;99397.72;7403824;19;1763;-57
2022/09/18 01:29:57;;;;;;;;;;;;;;;24.07;61.54;99397.72;7406855;19;1595;-57
2022/09/18 01:32:28;;;;;;;;;;;;;;;24.08;61.85;99413.72;7406039;19;1551;-57
2022/09/18 01:35:00;;;;;;;;;;;;;;;24.07;61.91;99441.75;7404897;19;1820;-57
2022/09/18 01:37:32;;;;;;;;;;;;;;;24.07;61.73;99430.13;7403872;19;1683;-57
2022/09/18 01:40:05;;;;;;;;;;;;;;;24.09;61.71;99455.91;7406341;19;1795;-57
2022/09/18 01:42:34;;;;;;;;;;;;;;;24.05;61.55;99446.53;7403771;19;1651;-57
2022/09/18 01:45:07;;;;;;;;;;;;;;;24.09;61.77;99447.78;7402193;19;1706;-57
2022/09/18 01:47:40;;;;;;;;;;;;;;;24.11;61.58;99480.00;7404626;19;1465;-57
2022/09/18 01:50:10;;;;;;;;;;;;;;;24.04;61.66;99485.38;7402594;19;1702;-57
2022/09/18 01:52:39;;;;;;;;;;;;;;;24.07;61.39;99506.56;7403216;19;961;-56
2022/09/18 01:55:10;;;;;;;;;;;;;;;24.07;61.39;99517.38;7403848;19;1845;-57
2022/09/18 01:57:40;;;;;;;;;;;;;;;24.05;61.78;99530.25;7405255;19;1726;-56
2022/09/18 02:00:13;;;;;;;;;;;;;;;24.06;61.87;99521.13;7401897;19;980;-57
2022/09/18 02:02:45;;;;;;;;;;;;;;;24.04;61.64;99534.00;7398409;19;1537;-57
2022/09/18 02:05:16;;;;;;;;;;;;;;;24.04;61.77;99547.50;7405505;19;1682;-57
2022/09/18 02:07:49;;;;;;;;;;;;;;;24.05;61.93;99551.84;7405475;19;1713;-57
2022/09/18 02:10:17;;;;;;;;;;;;;;;24.03;61.61;99559.31;7404576;19;1741;-57
2022/09/18 02:12:47;;;;;;;;;;;;;;;24.04;61.96;99554.78;7405171;19;1642;-57
2022/09/18 02:15:18;;;;;;;;;;;;;;;23.98;62.01;99572.59;7402756;19;1916;-57
2022/09/18 02:17:49;;;;;;;;;;;;;;;24.02;61.65;99574.69;7404951;19;1606;-57
2022/09/18 02:20:21;;;;;;;;;;;;;;;24.00;62.03;99592.97;7404553;19;1611;-57
2022/09/18 02:22:51;;;;;;;;;;;;;;;24.03;62.02;99586.31;7405896;19;1614;-67
2022/09/18 02:25:24;;;;;;;;;;;;;;;23.99;61.88;99574.25;7405430;19;980;-67
2022/09/18 02:27:53;;;;;;;;;;;;;;;23.99;62.07;99585.06;7404833;19;1689;-67
2022/09/18 02:30:24;;;;;;;;;;;;;;;23.99;61.91;99601.25;7405005;19;1799;-67
2022/09/18 02:32:55;;;;;;;;;;;;;;;23.95;62.02;99599.97;7404803;19;1556;-67
2022/09/18 02:35:24;;;;;;;;;;;;;;;23.98;61.95;99621.19;7404436;19;1531;-67
2022/09/18 02:37:58;;;;;;;;;;;;;;;23.97;61.83;99619.50;7412326;19;1646;-67
2022/09/18 02:40:37;;;;;;;;;;;;;;;23.95;62.04;99600.81;7412996;19;1055;-67
2022/09/18 02:43:14;;;;;;;;;;;;;;;23.96;61.82;99590.88;7412636;19;1020;-67
2022/09/18 02:45:50;;;;;;;;;;;;;;;23.98;61.68;99608.53;7409013;19;1784;-67
2022/09/18 02:48:27;;;;;;;;;;;;;;;24.00;61.86;99621.84;7413061;19;1005;-67
2022/09/18 02:51:00;;;;;;;;;;;;;;;23.99;61.65;99628.25;7410269;19;1647;-57
2022/09/18 02:53:31;;;;;;;;;;;;;;;23.99;61.80;99641.75;7409655;19;1860;-57
2022/09/18 02:56:02;;;;;;;;;;;;;;;24.00;61.92;99657.78;7411805;19;1505;-57
2022/09/18 02:58:33;;;;;;;;;;;;;;;24.04;61.78;99684.41;7411661;19;1059;-57
2022/09/18 03:01:06;;;;;;;;;;;;;;;24.02;61.63;99684.59;7407949;19;1610;-57
2022/09/18 03:03:38;;;;;;;;;;;;;;;24.05;61.41;99680.66;7406598;19;1547;-57
2022/09/18 03:06:07;;;;;;;;;;;;;;;23.99;61.57;99703.88;7410203;19;1548;-57
2022/09/18 03:08:36;;;;;;;;;;;;;;;23.96;61.68;99710.50;7412306;19;914;-57
2022/09/18 03:11:04;;;;;;;;;;;;;;;23.97;61.55;99730.22;7408447;19;1717;-57
2022/09/18 03:13:32;;;;;;;;;;;;;;;23.95;61.73;99740.38;7410158;19;1853;-57
2022/09/18 03:16:04;;;;;;;;;;;;;;;23.99;61.60;99728.16;7409882;19;1653;-57
2022/09/18 03:18:32;;;;;;;;;;;;;;;24.00;61.75;99738.78;7410465;19;1806;-57
2022/09/18 03:21:00;;;;;;;;;;;;;;;23.96;61.47;99729.41;7410320;19;1438;-57
2022/09/18 03:23:28;;;;;;;;;;;;;;;24.08;61.40;99740.53;7409425;19;1299;-57
2022/09/18 03:25:57;;;;;;;;;;;;;;;24.02;61.56;99771.84;7410308;19;1356;-57
2022/09/18 03:28:25;;;;;;;;;;;;;;;23.98;61.67;99767.03;7409934;19;1313;-57
2022/09/18 03:30:53;;;;;;;;;;;;;;;24.00;61.58;99787.41;7410604;19;1027;-57
2022/09/18 03:33:24;;;;;;;;;;;;;;;24.02;61.43;99779.09;7410562;19;1866;-67
2022/09/18 03:35:53;;;;;;;;;;;;;;;24.02;61.59;99781.81;7409684;19;1294;-57
2022/09/18 03:38:21;;;;;;;;;;;;;;;23.96;61.46;99791.50;7406003;19;1902;-67
2022/09/18 03:40:50;;;;;;;;;;;;;;;24.02;61.15;99789.91;7408878;19;1306;-67
2022/09/18 03:43:18;;;;;;;;;;;;;;;24.06;61.27;99801.19;7410287;19;1230;-67
2022/09/18 03:45:46;;;;;;;;;;;;;;;24.02;61.43;99795.31;7409492;19;1448;-67
2022/09/18 03:48:14;;;;;;;;;;;;;;;24.02;61.37;99816.91;7408139;19;1126;-57
2022/09/18 03:50:45;;;;;;;;;;;;;;;23.97;61.52;99813.94;7409355;19;1353;-57
2022/09/18 03:53:14;;;;;;;;;;;;;;;24.14;61.27;99836.16;7409814;19;1285;-67
2022/09/18 03:55:42;;;;;;;;;;;;;;;24.03;61.20;99837.47;7407111;19;1830;-67
2022/09/18 03:58:10;;;;;;;;;;;;;;;24.09;60.84;99833.19;7407886;19;1527;-67
2022/09/18 04:00:38;;;;;;;;;;;;;;;24.10;61.12;99830.28;7409064;19;1800;-67
2022/09/18 04:03:07;;;;;;;;;;;;;;;24.06;61.13;99836.28;7405413;19;1647;-67
2022/09/18 04:05:35;;;;;;;;;;;;;;;24.00;61.42;99846.81;7409871;19;1614;-67
2022/09/18 04:08:07;;;;;;;;;;;;;;;24.05;60.93;99862.44;7408484;19;1552;-67
2022/09/18 04:10:35;;;;;;;;;;;;;;;24.05;61.09;99869.72;7408645;19;1638;-67
2022/09/18 04:13:03;;;;;;;;;;;;;;;23.97;61.07;99858.00;7407985;19;1619;-67
2022/09/18 04:15:31;;;;;;;;;;;;;;;23.92;61.51;99871.22;7406166;19;1858;-67
2022/09/18 04:18:00;;;;;;;;;;;;;;;23.93;61.35;99872.06;7407272;19;1477;-67
2022/09/18 04:20:28;;;;;;;;;;;;;;;23.94;61.28;99882.69;7406971;19;1646;-67
2022/09/18 04:22:58;;;;;;;;;;;;;;;23.97;61.49;99924.66;7409347;19;1070;-67
2022/09/18 04:25:29;;;;;;;;;;;;;;;23.98;61.20;99924.47;7405738;19;1741;-67
2022/09/18 04:27:58;;;;;;;;;;;;;;;23.96;61.51;99931.09;7408113;19;1539;-67
2022/09/18 04:30:26;;;;;;;;;;;;;;;24.01;61.26;99923.25;7408729;19;1001;-67
2022/09/18 04:32:54;;;;;;;;;;;;;;;23.99;61.25;99933.41;7406632;19;1663;-67
2022/09/18 04:35:23;;;;;;;;;;;;;;;23.97;61.11;99930.94;7404088;19;1851;-67
2022/09/18 04:37:51;;;;;;;;;;;;;;;24.01;60.89;99920.56;7407891;19;1117;-67
2022/09/18 04:40:19;;;;;;;;;;;;;;;24.02;61.12;99941.16;7408401;19;1026;-57
2022/09/18 04:42:50;;;;;;;;;;;;;;;23.97;61.02;99924.66;7407780;19;1379;-57
2022/09/18 04:45:18;;;;;;;;;;;;;;;24.00;60.95;99932.41;7406595;19;1435;-67
2022/09/18 04:47:47;;;;;;;;;;;;;;;23.99;61.10;99926.16;7408765;19;1034;-67
2022/09/18 04:50:16;;;;;;;;;;;;;;;24.00;61.06;99925.13;7407895;19;1471;-57
2022/09/18 04:52:45;;;;;;;;;;;;;;;23.97;61.03;99933.63;7407968;19;1216;-57
2022/09/18 04:55:14;;;;;;;;;;;;;;;23.95;60.97;99934.81;7405813;19;1865;-56
2022/09/18 04:57:43;;;;;;;;;;;;;;;23.99;61.23;99946.91;7408230;19;1547;-57
2022/09/18 05:00:14;;;;;;;;;;;;;;;23.97;60.92;99938.16;7405393;19;1024;-57
2022/09/18 05:02:43;;;;;;;;;;;;;;;23.94;60.97;99954.75;7405376;19;1381;-57
2022/09/18 05:05:11;;;;;;;;;;;;;;;23.92;61.32;99957.66;7407581;19;993;-57
2022/09/18 05:07:39;;;;;;;;;;;;;;;23.96;61.21;99948.13;7407236;19;1366;-57
2022/09/18 05:10:09;;;;;;;;;;;;;;;23.91;60.96;99949.72;7406202;19;1699;-57
2022/09/18 05:12:37;;;;;;;;;;;;;;;23.94;61.02;99949.34;7406727;19;1615;-57
2022/09/18 05:15:06;;;;;;;;;;;;;;;23.90;60.87;99948.88;7406152;19;1866;-57
2022/09/18 05:17:39;;;;;;;;;;;;;;;23.88;61.09;99956.34;7406383;19;1311;-57
2022/09/18 05:20:08;;;;;;;;;;;;;;;23.87;61.19;99965.44;7407806;19;1008;-57
2022/09/18 05:22:36;;;;;;;;;;;;;;;23.89;61.14;99962.56;7407432;19;1740;-57
2022/09/18 05:25:04;;;;;;;;;;;;;;;23.97;61.07;99975.97;7406837;19;1778;-57
2022/09/18 05:27:33;;;;;;;;;;;;;;;23.96;60.82;99975.16;7401690;19;1642;-57
2022/09/18 05:30:01;;;;;;;;;;;;;;;24.05;60.83;99992.06;7405571;19;926;-57
2022/09/18 05:32:29;;;;;;;;;;;;;;;24.04;60.75;99976.91;7403444;19;1717;-57
2022/09/18 05:35:00;;;;;;;;;;;;;;;24.05;60.85;99989.38;7405574;19;1857;-57
2022/09/18 05:37:28;;;;;;;;;;;;;;;24.08;60.50;99997.13;7405077;19;1705;-57
2022/09/18 05:39:56;;;;;;;;;;;;;;;24.06;60.42;99982.97;7405965;19;1772;-57
2022/09/18 05:42:25;;;;;;;;;;;;;;;24.12;60.48;99978.66;7405135;19;1785;-57
2022/09/18 05:44:53;;;;;;;;;;;;;;;24.09;60.58;99974.47;7404063;19;1330;-57
2022/09/18 05:47:21;;;;;;;;;;;;;;;24.06;59.21;99985.66;7402875;19;1642;-57
2022/09/18 05:49:50;;;;;;;;;;;;;;;24.04;58.37;99974.22;7404093;19;1897;-57
2022/09/18 05:52:21;;;;;;;;;;;;;;;23.81;55.68;99983.25;7405996;19;1224;-57
2022/09/18 05:54:49;;;;;;;;;;;;;;;23.48;53.35;99992.69;7404301;19;1857;-57
2022/09/18 05:57:17;;;;;;;;;;;;;;;23.32;51.09;100002.63;7403945;19;1384;-57
2022/09/18 05:59:46;;;;;;;;;;;;;;;23.24;50.32;100008.09;7402155;19;1189;-57
2022/09/18 06:02:14;;;;;;;;;;;;;;;23.24;49.29;100021.59;7404322;19;1473;-57
2022/09/18 06:04:42;;;;;;;;;;;;;;;23.12;49.75;99998.72;7404508;19;1748;-57
2022/09/18 06:07:11;;;;;;;;;;;;;;;23.11;48.57;100013.25;7404917;19;1427;-57
2022/09/18 06:09:42;;;;;;;;;;;;;;;23.14;48.32;100018.25;7404392;19;1450;-57
2022/09/18 06:12:10;;;;;;;;;;;;;;;23.18;47.90;100015.03;7403987;19;1369;-57
2022/09/18 06:14:39;;;;;;;;;;;;;;;23.21;48.28;100003.88;7402954;19;1874;-57
2022/09/18 06:17:07;;;;;;;;;;;;;;;23.25;47.65;100009.75;7402562;19;1415;-57
2022/09/18 06:19:35;;;;;;;;;;;;;;;23.34;47.75;100002.44;7404405;19;1229;-57
2022/09/18 06:22:03;;;;;;;;;;;;;;;23.28;47.63;100020.19;7403857;19;1327;-56
2022/09/18 06:24:32;;;;;;;;;;;;;;;23.19;47.63;100022.09;7401916;19;1398;-56
2022/09/18 06:27:03;;;;;;;;;;;;;;;23.13;47.38;100011.22;7403470;19;1310;-57
2022/09/18 06:29:31;;;;;;;;;;;;;;;23.02;47.31;100024.09;7404177;19;1349;-57
2022/09/18 06:31:59;;;;;;;;;;;;;;;23.00;46.57;100020.72;7404529;19;1356;-57
2022/09/18 06:34:28;;;;;;;;;;;;;;;23.00;46.25;100038.75;7403274;19;1864;-57
2022/09/18 06:36:56;;;;;;;;;;;;;;;23.13;46.15;100038.19;7402111;19;1750;-57
2022/09/18 06:39:24;;;;;;;;;;;;;;;23.19;46.26;100067.13;7403263;19;1539;-57
2022/09/18 06:41:53;;;;;;;;;;;;;;;23.07;46.17;100053.22;7402364;19;1524;-57
2022/09/18 06:44:24;;;;;;;;;;;;;;;23.17;45.82;100066.47;7400465;19;1172;-57
2022/09/18 06:46:53;;;;;;;;;;;;;;;23.17;45.56;100080.78;7403058;19;1531;-57
2022/09/18 06:49:21;;;;;;;;;;;;;;;23.14;45.57;100062.28;7404871;19;965;-57
2022/09/18 06:51:49;;;;;;;;;;;;;;;23.14;45.08;100051.50;7404109;19;1756;-57
2022/09/18 06:54:18;;;;;;;;;;;;;;;23.11;45.25;100057.22;7402860;19;1643;-57
2022/09/18 06:56:48;;;;;;;;;;;;;;;23.13;45.12;100038.19;7399951;19;1849;-57
2022/09/18 06:59:16;;;;;;;;;;;;;;;23.21;45.10;100046.22;7401318;19;1567;-56
2022/09/18 07:01:48;;;;;;;;;;;;;;;23.24;45.18;100032.38;7397309;19;1408;-68
2022/09/18 07:04:16;;;;;;;;;;;;;;;23.16;45.19;100043.22;7402223;19;1315;-67
2022/09/18 07:06:45;;;;;;;;;;;;;;;23.22;44.88;100058.69;7402898;19;1043;-67
2022/09/18 07:09:13;;;;;;;;;;;;;;;23.22;44.37;100074.88;7402937;19;1674;-67
2022/09/18 07:11:42;;;;;;;;;;;;;;;23.08;44.49;100072.94;7403219;19;1380;-67
2022/09/18 07:14:10;;;;;;;;;;;;;;;23.16;43.91;100059.41;7403110;19;1552;-68
2022/09/18 07:16:39;;;;;;;;;;;;;;;23.17;44.19;100063.78;7400458;19;1846;-67
2022/09/18 07:19:09;;;;;;;;;;;;;;;23.10;44.28;100058.25;7404769;19;1008;-67
2022/09/18 07:21:38;;;;;;;;;;;;;;;23.11;43.92;100065.31;7400253;19;1630;-67
2022/09/18 07:24:07;;;;;;;;;;;;;;;23.14;43.90;100061.41;7408424;19;1559;-57
2022/09/18 07:26:35;;;;;;;;;;;;;;;23.09;43.85;100059.28;7410721;19;1559;-56
2022/09/18 07:29:03;;;;;;;;;;;;;;;23.07;43.93;100049.69;7410566;19;1540;-57
2022/09/18 07:31:32;;;;;;;;;;;;;;;23.07;43.88;100076.66;7408521;19;1334;-57
2022/09/18 07:34:00;;;;;;;;;;;;;;;23.05;43.65;100084.91;7410041;19;1041;-57
2022/09/18 07:36:31;;;;;;;;;;;;;;;23.02;43.76;100091.53;7408072;19;1858;-57
2022/09/18 07:38:59;;;;;;;;;;;;;;;23.05;43.96;100086.78;7408536;19;1472;-56
2022/09/18 07:41:28;;;;;;;;;;;;;;;23.07;43.92;100099.06;7407652;19;1567;-57
2022/09/18 07:43:56;;;;;;;;;;;;;;;23.05;43.96;100086.78;7410359;19;1426;-57
2022/09/18 07:46:24;;;;;;;;;;;;;;;23.04;43.62;100077.88;7410390;19;1512;-57
2022/09/18 07:48:52;;;;;;;;;;;;;;;23.07;43.78;100104.47;7409245;19;1011;-57
2022/09/18 07:51:21;;;;;;;;;;;;;;;23.00;43.83;100085.44;7408592;19;1646;-67
2022/09/18 07:53:52;;;;;;;;;;;;;;;23.03;43.49;100093.19;7409775;19;1554;-67
2022/09/18 07:56:20;;;;;;;;;;;;;;;23.11;43.62;100099.56;7406689;19;1867;-57
2022/09/18 07:58:48;;;;;;;;;;;;;;;23.13;43.49;100101.03;7409331;19;1633;-67
2022/09/18 08:01:16;;;;;;;;;;;;;;;23.13;42.97;100103.75;7408387;19;1591;-57
2022/09/18 08:03:44;;;;;;;;;;;;;;;23.15;43.13;100096.31;7410145;19;993;-57
2022/09/18 08:06:13;;;;;;;;;;;;;;;23.17;43.24;100115.00;7405632;19;1716;-67
2022/09/18 08:08:41;;;;;;;;;;;;;;;23.13;43.04;100101.03;7407336;19;1426;-68
2022/09/18 08:11:12;;;;;;;;;;;;;;;23.15;43.08;100112.50;7408762;19;1038;-67
2022/09/18 08:13:40;;;;;;;;;;;;;;;23.19;43.06;100107.59;7409366;19;1714;-57
2022/09/18 08:16:09;;;;;;;;;;;;;;;23.15;42.96;100088.22;7404648;19;1860;-57
2022/09/18 08:18:38;;;;;;;;;;;;;;;23.19;42.76;100086.84;7407383;19;1367;-57
2022/09/18 08:21:06;;;;;;;;;;;;;;;23.11;42.48;100096.84;7406854;19;1368;-57
2022/09/18 08:23:35;;;;;;;;;;;;;;;23.06;42.75;100100.09;7406563;19;1681;-67
2022/09/18 08:26:03;;;;;;;;;;;;;;;23.11;41.90;100091.47;7407963;19;1772;-67
2022/09/18 08:28:34;;;;;;;;;;;;;;;23.15;42.20;100103.56;7408373;19;1511;-67
2022/09/18 08:31:02;;;;;;;;;;;;;;;23.16;42.23;100107.97;7407277;19;1371;-67
2022/09/18 08:33:30;;;;;;;;;;;;;;;23.19;42.55;100113.81;7407502;19;1305;-67
2022/09/18 08:35:59;;;;;;;;;;;;;;;23.20;42.22;100101.19;7404187;19;1856;-57
2022/09/18 08:38:27;;;;;;;;;;;;;;;23.17;41.70;100091.56;7406117;19;1385;-57
2022/09/18 08:41:04;;;;;;;;;;;;;;;23.15;42.37;100111.66;7407537;19;1597;-57
2022/09/18 08:43:45;;;;;;;;;;;;;;;23.10;41.97;100108.66;7405637;19;1435;-67
2022/09/18 08:46:16;;;;;;;;;;;;;;;23.12;42.07;100112.88;7408222;19;1627;-67
2022/09/18 08:48:49;;;;;;;;;;;;;;;23.16;42.64;100129.53;7408721;19;1064;-67
2022/09/18 08:51:21;;;;;;;;;;;;;;;23.10;42.69;100124.81;7408154;19;1780;-67
2022/09/18 08:53:53;;;;;;;;;;;;;;;23.10;42.43;100125.69;7408138;19;1760;-57
2022/09/18 08:56:23;;;;;;;;;;;;;;;23.11;42.26;100126.53;7406541;19;1857;-56
2022/09/18 08:58:57;;;;;;;;;;;;;;;23.09;42.16;100125.84;7407046;19;1702;-67
2022/09/18 09:01:29;;;;;;;;;;;;;;;23.10;42.28;100128.38;7406101;19;1378;-68
2022/09/18 09:04:02;;;;;;;;;;;;;;;23.05;42.52;100144.25;7408904;19;987;-57
2022/09/18 09:06:41;;;;;;;;;;;;;;;22.95;42.33;100130.94;7405766;19;1737;-57
2022/09/18 09:09:23;;;;;;;;;;;;;;;22.91;42.43;100121.53;7407091;19;1560;-57
2022/09/18 09:11:54;;;;;;;;;;;;;;;23.07;42.38;100119.81;7406406;19;1790;-56
2022/09/18 09:14:34;;;;;;;;;;;;;;;23.06;42.57;100113.59;7404096;19;1711;-57
2022/09/18 09:17:06;;;;;;;;;;;;;;;22.99;42.53;100134.13;7403963;19;1853;-67
2022/09/18 09:19:39;;;;;;;;;;;;;;;23.02;42.32;100137.38;7405973;19;1603;-67
2022/09/18 09:22:09;;;;;;;;;;;;;;;23.02;42.14;100123.88;7407057;19;1559;-57
2022/09/18 09:24:43;;;;;;;;;;;;;;;22.99;41.79;100136.84;7405741;19;1662;-57
2022/09/18 09:27:18;;;;;;;;;;;;;;;23.09;41.52;100132.09;7403657;19;2126;-68
2022/09/18 09:29:50;;;;;;;;;;;;;;;23.07;41.75;100122.50;7406160;19;2042;-67
2022/09/18 09:32:24;;;;;;;;;;;;;;;23.10;41.77;100120.28;7406031;19;1098;-67
2022/09/18 09:34:54;;;;;;;;;;;;;;;23.18;41.78;100135.59;7404940;19;1237;-67
2022/09/18 09:37:25;;;;;;;;;;;;;;;23.10;42.00;100146.41;7405104;19;1854;-67
2022/09/18 09:39:56;;;;;;;;;;;;;;;23.17;41.17;100139.28;7405108;19;1634;-57
2022/09/18 09:42:28;;;;;;;;;;;;;;;23.22;41.95;100139.59;7407311;19;914;-57
2022/09/18 09:45:02;;;;;;;;;;;;;;;23.22;41.23;100150.41;7403444;19;1381;-57
2022/09/18 09:47:35;;;;;;;;;;;;;;;23.23;41.90;100143.97;7404871;19;1334;-57
2022/09/18 09:50:15;;;;;;;;;;;;;;;23.28;41.44;100138.88;7402823;19;1297;-57
2022/09/18 09:52:45;;;;;;;;;;;;;;;23.27;41.64;100153.38;7406796;19;1357;-56
2022/09/18 09:55:20;;;;;;;;;;;;;;;23.26;41.80;100157.13;7404065;19;1548;-57
2022/09/18 09:57:52;;;;;;;;;;;;;;;23.30;41.62;100161.13;7399325;19;1839;-56
2022/09/18 10:00:23;;;;;;;;;;;;;;;23.29;41.79;100135.16;7400935;19;1321;-56
2022/09/18 10:03:10;;;;;;;;;;;;;;;23.26;41.74;100167.91;7402887;19;1440;-57
2022/09/18 10:05:40;;;;;;;;;;;;;;;23.28;41.51;100171.25;7405095;19;1557;-57
2022/09/18 10:08:11;;;;;;;;;;;;;;;23.29;41.18;100145.13;7405219;19;1564;-57
2022/09/18 10:10:44;;;;;;;;;;;;;;;23.30;41.43;100161.13;7402153;19;1570;-57
2022/09/18 10:13:16;;;;;;;;;;;;;;;23.30;41.40;100158.44;7404360;19;1251;-57
2022/09/18 10:15:56;;;;;;;;;;;;;;;23.33;41.23;100141.88;7405951;19;1853;-57
2022/09/18 10:18:26;;;;;;;;;;;;;;;23.36;41.57;100163.13;7402746;19;1625;-57
2022/09/18 10:20:57;;;;;;;;;;;;;;;23.41;41.29;100140.97;7404605;19;1563;-56
2022/09/18 10:23:30;;;;;;;;;;;;;;;23.43;41.67;100152.44;7404183;19;1677;-67
2022/09/18 10:26:00;;;;;;;;;;;;;;;23.37;41.37;100153.97;7405217;19;1777;-67
2022/09/18 10:28:28;;;;;;;;;;;;;;;23.30;41.01;100171.06;7401750;19;1706;-67
2022/09/18 10:31:00;;;;;;;;;;;;;;;23.32;40.98;100171.75;7404336;19;1804;-67
2022/09/18 10:33:33;;;;;;;;;;;;;;;23.25;41.06;100155.41;7403633;19;1347;-67
2022/09/18 10:36:04;;;;;;;;;;;;;;;23.30;40.97;100144.09;7404530;19;1850;-67
2022/09/18 10:38:36;;;;;;;;;;;;;;;23.31;40.74;100135.81;7401426;19;1781;-67
2022/09/18 10:41:28;;;;;;;;;;;;;;;23.32;41.19;100151.00;7403207;19;1309;-67
2022/09/18 10:43:59;;;;;;;;;;;;;;;23.36;41.05;100141.53;7401428;19;1642;-67
2022/09/18 10:46:31;;;;;;;;;;;;;;;23.40;41.02;100156.34;7405306;19;1028;-67
2022/09/18 10:49:00;;;;;;;;;;;;;;;23.39;41.01;100151.94;7402042;19;1683;-67
2022/09/18 10:51:29;;;;;;;;;;;;;;;23.54;40.93;100149.31;7402157;19;1359;-66
2022/09/18 10:54:05;;;;;;;;;;;;;;;23.45;40.71;100147.69;7401844;19;1304;-66
2022/09/18 10:56:33;;;;;;;;;;;;;;;23.51;41.12;100133.47;7403851;19;1850;-66
2022/09/18 10:59:19;;;;;;;;;;;;;;;23.42;40.66;100146.19;7410482;19;1367;-57
2022/09/18 11:01:57;;;;;;;;;;;;;;;23.45;40.51;100154.97;7404253;19;1800;-57
2022/09/18 11:04:26;;;;;;;;;;;;;;;23.45;41.04;100169.28;7405305;19;1705;-57
2022/09/18 11:06:55;;;;;;;;;;;;;;;23.42;40.65;100157.00;7410843;19;1526;-57
2022/09/18 11:09:30;;;;;;;;;;;;;;;23.43;40.30;100165.94;7411452;19;1358;-57
2022/09/18 11:11:58;;;;;;;;;;;;;;;23.46;40.66;100172.81;7408453;19;1263;-57
2022/09/18 11:14:28;;;;;;;;;;;;;;;23.42;40.48;100159.69;7406317;19;1690;-56
2022/09/18 11:17:00;;;;;;;;;;;;;;;23.35;40.42;100166.81;7409153;19;1853;-57
2022/09/18 11:19:30;;;;;;;;;;;;;;;23.41;40.20;100160.69;7408748;19;1382;-67
2022/09/18 11:22:01;;;;;;;;;;;;;;;23.38;40.02;100169.16;7409701;19;1282;-57
2022/09/18 11:24:31;;;;;;;;;;;;;;;23.44;40.37;100186.50;7406839;19;1519;-57
2022/09/18 11:27:00;;;;;;;;;;;;;;;23.46;40.34;100183.59;7406602;19;1866;-57
2022/09/18 11:29:32;;;;;;;;;;;;;;;23.42;40.54;100192.06;7410782;19;1623;-57
2022/09/18 11:32:13;;;;;;;;;;;;;;;23.41;40.40;100187.69;7410692;19;964;-56
2022/09/18 11:34:48;;;;;;;;;;;;;;;23.35;40.13;100177.59;7410293;19;1693;-57
2022/09/18 11:37:23;;;;;;;;;;;;;;;23.30;39.90;100182.72;7406327;19;1849;-57
2022/09/18 11:39:54;;;;;;;;;;;;;;;23.36;39.91;100173.91;7408814;19;1582;-65
2022/09/18 11:42:23;;;;;;;;;;;;;;;23.38;40.01;100198.84;7410494;19;1555;-66
2022/09/18 11:44:53;;;;;;;;;;;;;;;23.38;40.02;100187.22;7410984;19;1289;-66
2022/09/18 11:47:27;;;;;;;;;;;;;;;23.30;39.60;100190.81;7408047;19;1792;-66
2022/09/18 11:50:04;;;;;;;;;;;;;;;23.33;39.72;100185.03;7406824;19;1939;-66
2022/09/18 11:52:34;;;;;;;;;;;;;;;23.38;40.09;100201.53;7408988;19;1642;-67
2022/09/18 11:55:06;;;;;;;;;;;;;;;23.32;40.06;100177.97;7410170;19;1618;-66
2022/09/18 11:57:37;;;;;;;;;;;;;;;23.33;39.66;100185.03;7408371;19;1855;-66
2022/09/18 12:00:09;;;;;;;;;;;;;;;23.34;40.30;100178.63;7409511;19;1547;-66
2022/09/18 12:02:42;;;;;;;;;;;;;;;23.30;39.66;100190.81;7407655;19;1420;-66
2022/09/18 12:05:19;;;;;;;;;;;;;;;23.37;39.15;100191.75;7408270;19;1659;-66
2022/09/18 12:07:53;;;;;;;;;;;;;;;23.39;39.40;100200.50;7408999;19;1347;-66
2022/09/18 12:10:26;;;;;;;;;;;;;;;23.37;39.77;100207.13;7407810;19;1636;-65
2022/09/18 12:12:57;;;;;;;;;;;;;;;23.38;39.39;100204.25;7407571;19;1738;-66
2022/09/18 12:15:27;;;;;;;;;;;;;;;23.39;39.82;100207.78;7406973;19;1566;-66
2022/09/18 12:17:59;;;;;;;;;;;;;;;23.32;39.40;100226.53;7403471;19;1845;-66
2022/09/18 12:20:29;;;;;;;;;;;;;;;23.46;39.17;100234.88;7408624;19;1550;-66
2022/09/18 12:22:59;;;;;;;;;;;;;;;23.36;39.69;100230.56;7409016;19;1461;-66
2022/09/18 12:25:31;;;;;;;;;;;;;;;23.30;39.55;100235.81;7409397;19;992;-66
2022/09/18 12:28:07;;;;;;;;;;;;;;;23.21;39.18;100233.16;7408719;19;1067;-66
2022/09/18 12:30:39;;;;;;;;;;;;;;;23.18;39.01;100246.19;7408550;19;1871;-66
2022/09/18 12:33:18;;;;;;;;;;;;;;;23.22;38.81;100239.41;7405888;19;1685;-66
2022/09/18 12:36:02;;;;;;;;;;;;;;;23.19;38.67;100254.06;7407863;19;1622;-56
2022/09/18 12:38:37;;;;;;;;;;;;;;;23.18;38.44;100252.41;7405994;19;1885;-66
2022/09/18 12:41:21;;;;;;;;;;;;;;;23.22;38.50;100248.34;7408120;19;1556;-66
2022/09/18 12:44:00;;;;;;;;;;;;;;;23.24;38.69;100258.97;7407998;19;1575;-66
2022/09/18 12:46:34;;;;;;;;;;;;;;;23.20;38.80;100263.03;7407195;19;1395;-66
2022/09/18 12:49:18;;;;;;;;;;;;;;;23.26;38.66;100259.63;7406102;19;1650;-66
2022/09/18 12:51:48;;;;;;;;;;;;;;;23.26;39.17;100254.22;7403504;19;1318;-65
2022/09/18 12:54:29;;;;;;;;;;;;;;;23.23;38.38;100260.78;7405028;19;1320;-65
2022/09/18 12:57:09;;;;;;;;;;;;;;;23.20;38.29;100271.97;7406023;19;1842;-65
2022/09/18 12:59:44;;;;;;;;;;;;;;;23.13;38.27;100259.34;7407890;19;1412;-65
2022/09/18 13:02:18;;;;;;;;;;;;;;;23.12;38.32;100272.00;7403539;19;1505;-56
2022/09/18 13:04:51;;;;;;;;;;;;;;;23.12;38.37;100260.34;7407195;19;1614;-55
2022/09/18 13:07:22;;;;;;;;;;;;;;;23.07;37.55;100262.75;7407126;19;1702;-56
2022/09/18 13:09:52;;;;;;;;;;;;;;;23.13;37.45;100275.53;7407501;19;1654;-56
2022/09/18 13:12:24;;;;;;;;;;;;;;;22.99;37.56;100256.31;7405236;19;1420;-64